createdAt,value
2023-02-18T00:02:26.326Z,7.55
2023-02-18T00:07:28.119Z,7.30
2023-02-18T00:12:31.329Z,8.07
2023-02-18T00:17:32.982Z,8.55
2023-02-18T00:22:34.923Z,8.23
2023-02-18T00:27:36.532Z,7.70
2023-02-18T00:32:38.163Z,6.57
2023-02-18T00:37:39.781Z,6.88
2023-02-18T00:42:41.439Z,6.70
2023-02-18T00:47:43.493Z,5.22
2023-02-18T00:52:45.773Z,5.80
2023-02-18T00:57:47.393Z,4.45
2023-02-18T01:02:49.051Z,4.60
2023-02-18T01:07:50.692Z,3.42
2023-02-18T01:12:52.315Z,4.00
2023-02-18T01:17:53.953Z,3.15
2023-02-18T01:22:55.573Z,2.17
2023-02-18T01:27:57.527Z,2.45
2023-02-18T01:32:59.232Z,2.03
2023-02-18T01:38:00.907Z,1.70
2023-02-18T01:43:03.001Z,2.55
2023-02-18T01:48:07.362Z,2.00
2023-02-18T01:53:09.273Z,1.58
2023-02-18T01:58:13.677Z,1.40
2023-02-18T02:03:15.397Z,2.05
2023-02-18T02:08:18.605Z,1.48
2023-02-18T02:13:40.469Z,2.83
2023-02-18T02:19:00.355Z,2.20
2023-02-18T02:24:04.787Z,2.30
2023-02-18T02:29:37.320Z,1.88
2023-02-18T02:34:46.588Z,2.45
2023-02-18T02:40:06.901Z,2.63
2023-02-18T02:45:33.594Z,2.50
2023-02-18T02:50:43.992Z,2.88
2023-02-18T02:55:46.073Z,1.98
2023-02-18T03:01:21.074Z,2.17
2023-02-18T03:06:32.116Z,2.25
2023-02-18T03:11:44.402Z,2.55
2023-02-18T03:16:58.201Z,2.30
2023-02-18T03:22:09.221Z,2.83
2023-02-18T03:27:19.607Z,2.20
2023-02-18T03:32:24.041Z,3.22
2023-02-18T03:37:27.321Z,2.70
2023-02-18T03:42:29.680Z,2.17
2023-02-18T03:47:31.471Z,2.50
2023-02-18T03:52:33.180Z,3.53
2023-02-18T03:57:34.949Z,3.33
2023-02-18T04:02:36.611Z,3.30
2023-02-18T04:07:38.282Z,3.10
2023-02-18T04:12:40.075Z,3.83
2023-02-18T04:17:41.789Z,2.97
2023-02-18T04:22:43.440Z,4.43
2023-02-18T04:27:45.186Z,3.90
2023-02-18T04:32:46.970Z,3.63
2023-02-18T04:37:48.593Z,3.67
2023-02-18T04:42:50.195Z,3.35
2023-02-18T04:47:52.209Z,4.32
2023-02-18T04:52:53.907Z,3.65
2023-02-18T04:57:55.516Z,3.83
2023-02-18T05:02:57.151Z,4.95
2023-02-18T05:07:58.774Z,4.13
2023-02-18T05:13:00.817Z,4.18
2023-02-18T05:18:02.438Z,5.25
2023-02-18T05:23:04.047Z,5.35
2023-02-18T05:28:05.664Z,5.57
2023-02-18T05:33:07.290Z,6.15
2023-02-18T05:38:10.011Z,7.55
2023-02-18T05:43:12.210Z,7.30
2023-02-18T05:48:13.996Z,7.60
2023-02-18T05:53:17.568Z,7.80
2023-02-18T05:58:19.330Z,7.57
2023-02-18T06:03:20.985Z,8.02
2023-02-18T06:08:22.701Z,7.75
2023-02-18T06:13:24.465Z,7.22
2023-02-18T06:18:26.172Z,7.47
2023-02-18T06:23:27.872Z,8.02
2023-02-18T06:28:29.497Z,7.45
2023-02-18T06:33:31.111Z,8.77
2023-02-18T06:38:33.196Z,7.70
2023-02-18T06:43:35.586Z,7.50
2023-02-18T06:48:38.220Z,7.97
2023-02-18T06:53:40.142Z,8.32
2023-02-18T06:58:41.795Z,8.13
2023-02-18T07:03:43.460Z,8.65
2023-02-18T07:08:45.094Z,8.98
2023-02-18T07:13:46.690Z,9.63
2023-02-18T07:18:48.365Z,10.40
2023-02-18T07:23:50.098Z,8.75
2023-02-18T07:28:51.888Z,10.18
2023-02-18T07:33:53.494Z,11.73
2023-02-18T07:38:55.347Z,10.00
2023-02-18T07:43:56.988Z,10.90
2023-02-18T07:48:58.645Z,10.32
2023-02-18T07:54:00.319Z,10.13
2023-02-18T07:59:01.939Z,9.50
2023-02-18T08:04:04.175Z,9.60
2023-02-18T08:09:06.439Z,10.48
2023-02-18T08:14:08.555Z,10.00
2023-02-18T08:19:10.417Z,11.38
2023-02-18T08:24:12.212Z,10.13
2023-02-18T08:29:13.805Z,12.20
2023-02-18T08:34:15.418Z,12.65
2023-02-18T08:39:17.007Z,10.85
2023-02-18T08:44:18.632Z,11.25
2023-02-18T08:49:24.342Z,12.38
2023-02-18T08:54:26.155Z,10.95
2023-02-18T08:59:27.803Z,4.82
2023-02-18T09:04:30.017Z,2.53
2023-02-18T09:09:31.768Z,2.47
2023-02-18T09:14:33.446Z,2.47
2023-02-18T09:19:35.083Z,1.85
2023-02-18T09:24:38.601Z,2.08
2023-02-18T09:29:41.058Z,1.33
2023-02-18T09:34:42.663Z,1.25
2023-02-18T09:39:44.272Z,1.38
2023-02-18T09:44:52.467Z,1.20
2023-02-18T09:50:28.336Z,1.30
2023-02-18T09:55:36.338Z,1.70
2023-02-18T10:00:48.544Z,1.17
2023-02-18T10:06:06.922Z,1.10
2023-02-18T10:11:21.897Z,1.25
2023-02-18T10:16:25.071Z,0.77
2023-02-18T10:21:30.633Z,1.13
2023-02-18T10:26:37.169Z,0.77
2023-02-18T10:31:50.087Z,1.00
2023-02-18T10:36:56.331Z,0.82
2023-02-18T10:42:19.446Z,0.80
2023-02-18T10:47:43.111Z,1.00
2023-02-18T10:52:49.613Z,1.05
2023-02-18T10:57:54.722Z,0.90
2023-02-18T11:03:24.566Z,0.68
2023-02-18T11:08:29.097Z,0.98
2023-02-18T11:13:32.876Z,0.70
2023-02-18T11:18:40.313Z,0.50
2023-02-18T11:23:50.862Z,0.60
2023-02-18T11:29:00.605Z,0.68
2023-02-18T11:34:03.310Z,0.47
2023-02-18T11:39:16.356Z,0.50
2023-02-18T11:44:23.949Z,0.70
2023-02-18T11:49:26.246Z,0.63
2023-02-18T11:54:31.342Z,0.55
2023-02-18T11:59:37.928Z,0.63
2023-02-18T12:04:58.127Z,0.90
2023-02-18T12:10:12.606Z,1.00
2023-02-18T12:15:19.018Z,1.02
2023-02-18T12:21:02.338Z,1.10
2023-02-18T12:26:22.580Z,1.30
2023-02-18T12:31:42.534Z,1.20
2023-02-18T12:36:59.183Z,1.83
2023-02-18T12:42:15.833Z,1.92
2023-02-18T12:47:29.102Z,1.48
2023-02-18T12:53:10.051Z,1.60
2023-02-18T12:58:20.499Z,1.92
2023-02-18T13:04:06.034Z,2.05
2023-02-18T13:09:22.690Z,1.42
2023-02-18T13:14:29.718Z,0.90
2023-02-18T13:19:36.768Z,1.45
2023-02-18T13:24:44.843Z,1.10
2023-02-18T13:30:15.326Z,0.98
2023-02-18T13:35:25.233Z,0.90
2023-02-18T13:40:30.667Z,0.77
2023-02-18T13:45:34.050Z,0.98
2023-02-18T13:50:43.594Z,0.90
2023-02-18T13:56:00.352Z,1.02
2023-02-18T14:01:06.781Z,1.17
2023-02-18T14:06:15.834Z,1.05
2023-02-18T14:11:17.474Z,1.27
2023-02-18T14:16:19.438Z,1.00
2023-02-18T14:21:34.869Z,1.08
2023-02-18T14:26:48.601Z,1.00
2023-02-18T14:31:54.726Z,1.02
2023-02-18T14:37:17.570Z,1.08
2023-02-18T14:42:25.034Z,0.90
2023-02-18T14:47:38.648Z,1.42
2023-02-18T14:52:47.689Z,0.98
2023-02-18T14:58:02.671Z,1.13
2023-02-18T15:03:04.347Z,1.13
2023-02-18T15:08:14.346Z,0.90
2023-02-18T15:13:29.776Z,1.08
2023-02-18T15:18:41.640Z,0.95
2023-02-18T15:23:43.260Z,0.80
2023-02-18T15:29:04.897Z,0.70
2023-02-18T15:34:31.270Z,0.75
2023-02-18T15:39:33.147Z,0.68
2023-02-18T15:44:36.774Z,0.70
2023-02-18T15:49:40.257Z,0.70
2023-02-18T15:54:42.818Z,0.80
2023-02-18T15:59:54.913Z,0.80
2023-02-18T16:05:00.534Z,0.70
2023-02-18T16:10:16.526Z,0.50
2023-02-18T16:15:28.976Z,0.52
2023-02-18T16:20:38.839Z,0.70
2023-02-18T16:25:46.600Z,0.85
2023-02-18T16:30:48.246Z,0.70
2023-02-18T16:35:50.978Z,0.60
2023-02-18T16:40:54.497Z,1.08
2023-02-18T16:45:57.953Z,0.50
2023-02-18T16:51:02.528Z,0.65
2023-02-18T16:56:04.412Z,0.63
2023-02-18T17:01:06.268Z,0.55
2023-02-18T17:06:08.329Z,0.80
2023-02-18T17:11:26.163Z,0.80
2023-02-18T17:16:28.183Z,0.70
2023-02-18T17:21:29.815Z,0.80
2023-02-18T17:26:31.963Z,0.68
2023-02-18T17:31:36.512Z,0.77
2023-02-18T17:36:39.626Z,0.70
2023-02-18T17:41:42.411Z,0.90
2023-02-18T17:46:44.332Z,0.85
2023-02-18T17:51:46.088Z,0.55
2023-02-18T17:56:47.702Z,0.70
2023-02-18T18:01:49.389Z,0.80
2023-02-18T18:06:51.205Z,0.80
2023-02-18T18:11:52.857Z,0.95
2023-02-18T18:16:54.516Z,1.05
2023-02-18T18:21:56.146Z,0.80
2023-02-18T18:26:57.803Z,0.95
2023-02-18T18:31:59.457Z,1.13
2023-02-18T18:37:01.061Z,1.27
2023-02-18T18:42:02.672Z,1.10
2023-02-18T18:47:04.353Z,1.05
2023-02-18T18:52:06.035Z,1.00
2023-02-18T18:57:07.639Z,1.20
2023-02-18T19:02:19.804Z,1.20
2023-02-18T19:07:21.440Z,1.15
2023-02-18T19:12:23.187Z,1.25
2023-02-18T19:17:24.784Z,1.58
2023-02-18T19:22:26.368Z,1.25
2023-02-18T19:27:28.050Z,1.20
2023-02-18T19:32:29.668Z,1.05
2023-02-18T19:37:33.039Z,1.00
2023-02-18T19:42:34.706Z,1.30
2023-02-18T19:47:36.585Z,0.80
2023-02-18T19:52:38.261Z,1.35
2023-02-18T19:57:39.908Z,1.15
2023-02-18T20:02:41.911Z,1.27
2023-02-18T20:07:46.136Z,1.38
2023-02-18T20:12:54.214Z,1.20
2023-02-18T20:17:55.924Z,1.50
2023-02-18T20:22:57.572Z,1.52
2023-02-18T20:28:01.525Z,1.25
2023-02-18T20:33:03.439Z,1.65
2023-02-18T20:38:05.032Z,1.42
2023-02-18T20:43:06.637Z,1.70
2023-02-18T20:48:08.360Z,2.42
2023-02-18T20:53:09.959Z,2.05
2023-02-18T20:58:11.600Z,1.65
2023-02-18T21:03:13.203Z,1.92
2023-02-18T21:08:14.794Z,1.88
2023-02-18T21:13:16.464Z,1.95
2023-02-18T21:18:18.486Z,1.85
2023-02-18T21:23:20.167Z,2.00
2023-02-18T21:28:21.771Z,2.13
2023-02-18T21:33:23.472Z,1.80
2023-02-18T21:38:25.098Z,1.70
2023-02-18T21:43:26.802Z,2.35
2023-02-18T21:48:46.898Z,2.38
2023-02-18T21:53:48.516Z,2.28
2023-02-18T21:58:50.108Z,2.45
2023-02-18T22:03:53.533Z,2.60
2023-02-18T22:08:55.136Z,2.42
2023-02-18T22:13:57.069Z,3.40
2023-02-18T22:18:58.764Z,2.78
2023-02-18T22:24:00.414Z,3.50
2023-02-18T22:29:02.414Z,3.13
2023-02-18T22:34:04.056Z,3.95
2023-02-18T22:39:06.369Z,3.58
2023-02-18T22:44:11.350Z,3.30
2023-02-18T22:49:13.190Z,3.20
2023-02-18T22:54:16.595Z,2.55
2023-02-18T22:59:19.338Z,2.70
2023-02-18T23:04:21.929Z,2.80
2023-02-18T23:09:25.151Z,2.47
2023-02-18T23:14:29.746Z,2.83
2023-02-18T23:19:32.575Z,2.20
2023-02-18T23:24:36.154Z,2.75
2023-02-18T23:29:38.417Z,2.65
2023-02-18T23:34:40.305Z,2.67
2023-02-18T23:39:42.039Z,3.60
2023-02-18T23:44:43.706Z,2.65
2023-02-18T23:49:45.310Z,2.55
2023-02-18T23:54:46.908Z,2.60
2023-02-18T23:59:48.509Z,3.05
